sensor_id;sensor_type;location;lat;lon;timestamp;temperature;humidity
5415;DHT22;2730;51.512;7.504;2023-07-29T00:01:14;19.10;99.90
5415;DHT22;2730;51.512;7.504;2023-07-29T00:03:40;19.10;99.90
5415;DHT22;2730;51.512;7.504;2023-07-29T00:06:09;19.00;99.90
5415;DHT22;2730;51.512;7.504;2023-07-29T00:08:36;18.90;99.90
5415;DHT22;2730;51.512;7.504;2023-07-29T00:11:03;18.90;99.90
5415;DHT22;2730;51.512;7.504;2023-07-29T00:13:31;18.90;99.90
5415;DHT22;2730;51.512;7.504;2023-07-29T00:15:58;18.90;99.90
5415;DHT22;2730;51.512;7.504;2023-07-29T00:18:25;18.90;99.90
5415;DHT22;2730;51.512;7.504;2023-07-29T00:20:53;18.90;99.90
5415;DHT22;2730;51.512;7.504;2023-07-29T00:23:19;18.90;99.90
5415;DHT22;2730;51.512;7.504;2023-07-29T00:25:47;18.90;99.90
5415;DHT22;2730;51.512;7.504;2023-07-29T00:28:13;19.00;99.90
5415;DHT22;2730;51.512;7.504;2023-07-29T00:30:42;18.90;99.90
5415;DHT22;2730;51.512;7.504;2023-07-29T00:33:08;19.00;99.90
5415;DHT22;2730;51.512;7.504;2023-07-29T00:35:35;19.00;99.90
5415;DHT22;2730;51.512;7.504;2023-07-29T00:38:02;19.00;99.90
5415;DHT22;2730;51.512;7.504;2023-07-29T00:40:29;19.00;99.90
5415;DHT22;2730;51.512;7.504;2023-07-29T00:42:56;19.00;99.90
5415;DHT22;2730;51.512;7.504;2023-07-29T00:45:24;18.90;99.90
5415;DHT22;2730;51.512;7.504;2023-07-29T00:47:52;18.80;99.90
5415;DHT22;2730;51.512;7.504;2023-07-29T00:50:20;18.70;99.90
5415;DHT22;2730;51.512;7.504;2023-07-29T00:52:47;18.60;99.90
5415;DHT22;2730;51.512;7.504;2023-07-29T00:55:15;18.60;99.90
5415;DHT22;2730;51.512;7.504;2023-07-29T00:57:42;18.50;99.90
5415;DHT22;2730;51.512;7.504;2023-07-29T01:00:14;18.50;99.90
5415;DHT22;2730;51.512;7.504;2023-07-29T01:02:41;18.50;99.90
5415;DHT22;2730;51.512;7.504;2023-07-29T01:05:11;18.50;99.90
5415;DHT22;2730;51.512;7.504;2023-07-29T01:07:49;18.50;99.90
5415;DHT22;2730;51.512;7.504;2023-07-29T01:10:24;18.50;99.90
5415;DHT22;2730;51.512;7.504;2023-07-29T01:12:56;18.60;99.90
5415;DHT22;2730;51.512;7.504;2023-07-29T01:15:31;18.60;99.90
5415;DHT22;2730;51.512;7.504;2023-07-29T01:18:06;18.60;99.90
5415;DHT22;2730;51.512;7.504;2023-07-29T01:20:38;18.70;99.90
5415;DHT22;2730;51.512;7.504;2023-07-29T01:23:06;18.70;99.90
5415;DHT22;2730;51.512;7.504;2023-07-29T01:25:34;18.70;99.90
5415;DHT22;2730;51.512;7.504;2023-07-29T01:28:01;18.70;99.90
5415;DHT22;2730;51.512;7.504;2023-07-29T01:30:31;18.70;99.90
5415;DHT22;2730;51.512;7.504;2023-07-29T01:33:04;18.70;99.90
5415;DHT22;2730;51.512;7.504;2023-07-29T01:35:33;18.70;99.90
5415;DHT22;2730;51.512;7.504;2023-07-29T01:38:05;18.70;99.90
5415;DHT22;2730;51.512;7.504;2023-07-29T01:40:34;18.60;99.90
5415;DHT22;2730;51.512;7.504;2023-07-29T01:43:01;18.60;99.90
5415;DHT22;2730;51.512;7.504;2023-07-29T01:45:28;18.50;99.90
5415;DHT22;2730;51.512;7.504;2023-07-29T01:47:57;18.50;99.90
5415;DHT22;2730;51.512;7.504;2023-07-29T01:50:24;18.50;99.90
5415;DHT22;2730;51.512;7.504;2023-07-29T01:52:50;18.50;99.90
5415;DHT22;2730;51.512;7.504;2023-07-29T01:55:17;18.40;99.90
5415;DHT22;2730;51.512;7.504;2023-07-29T01:57:45;18.40;99.90
5415;DHT22;2730;51.512;7.504;2023-07-29T02:00:12;18.30;99.90
5415;DHT22;2730;51.512;7.504;2023-07-29T02:02:39;18.30;99.90
5415;DHT22;2730;51.512;7.504;2023-07-29T02:05:06;18.20;99.90
5415;DHT22;2730;51.512;7.504;2023-07-29T02:07:33;18.20;99.90
5415;DHT22;2730;51.512;7.504;2023-07-29T02:09:59;18.20;99.90
5415;DHT22;2730;51.512;7.504;2023-07-29T02:12:26;18.20;99.90
5415;DHT22;2730;51.512;7.504;2023-07-29T02:14:54;18.20;99.90
5415;DHT22;2730;51.512;7.504;2023-07-29T02:17:21;18.20;99.90
5415;DHT22;2730;51.512;7.504;2023-07-29T02:19:48;18.20;99.90
5415;DHT22;2730;51.512;7.504;2023-07-29T02:22:16;18.30;99.90
5415;DHT22;2730;51.512;7.504;2023-07-29T02:24:42;18.30;99.90
5415;DHT22;2730;51.512;7.504;2023-07-29T02:27:09;18.30;99.90
5415;DHT22;2730;51.512;7.504;2023-07-29T02:29:37;18.30;99.90
5415;DHT22;2730;51.512;7.504;2023-07-29T02:32:05;18.30;99.90
5415;DHT22;2730;51.512;7.504;2023-07-29T02:34:32;18.30;99.90
5415;DHT22;2730;51.512;7.504;2023-07-29T02:36:59;18.30;99.90
5415;DHT22;2730;51.512;7.504;2023-07-29T02:39:25;18.30;99.90
5415;DHT22;2730;51.512;7.504;2023-07-29T02:41:52;18.40;99.90
5415;DHT22;2730;51.512;7.504;2023-07-29T02:44:20;18.40;99.90
5415;DHT22;2730;51.512;7.504;2023-07-29T02:46:47;18.40;99.90
5415;DHT22;2730;51.512;7.504;2023-07-29T02:49:15;18.40;99.90
5415;DHT22;2730;51.512;7.504;2023-07-29T02:51:42;18.40;99.90
5415;DHT22;2730;51.512;7.504;2023-07-29T02:54:09;18.30;99.90
5415;DHT22;2730;51.512;7.504;2023-07-29T02:56:35;18.30;99.90
5415;DHT22;2730;51.512;7.504;2023-07-29T02:59:02;18.40;99.90
5415;DHT22;2730;51.512;7.504;2023-07-29T03:01:29;18.30;99.90
5415;DHT22;2730;51.512;7.504;2023-07-29T03:03:55;18.30;99.90
5415;DHT22;2730;51.512;7.504;2023-07-29T03:06:24;18.30;99.90
5415;DHT22;2730;51.512;7.504;2023-07-29T03:08:51;18.30;99.90
5415;DHT22;2730;51.512;7.504;2023-07-29T03:11:17;18.30;99.90
5415;DHT22;2730;51.512;7.504;2023-07-29T03:13:44;18.40;99.90
5415;DHT22;2730;51.512;7.504;2023-07-29T03:16:12;18.40;99.90
5415;DHT22;2730;51.512;7.504;2023-07-29T03:18:40;18.40;99.90
5415;DHT22;2730;51.512;7.504;2023-07-29T03:21:07;18.50;99.90
5415;DHT22;2730;51.512;7.504;2023-07-29T03:23:36;18.40;99.90
5415;DHT22;2730;51.512;7.504;2023-07-29T03:26:04;18.50;99.90
5415;DHT22;2730;51.512;7.504;2023-07-29T03:28:37;18.50;99.90
5415;DHT22;2730;51.512;7.504;2023-07-29T03:31:04;18.50;99.90
5415;DHT22;2730;51.512;7.504;2023-07-29T03:33:30;18.50;99.90
5415;DHT22;2730;51.512;7.504;2023-07-29T03:35:57;18.50;99.90
5415;DHT22;2730;51.512;7.504;2023-07-29T03:38:24;18.60;99.90
5415;DHT22;2730;51.512;7.504;2023-07-29T03:40:52;18.60;99.90
5415;DHT22;2730;51.512;7.504;2023-07-29T03:43:19;18.60;99.90
5415;DHT22;2730;51.512;7.504;2023-07-29T03:45:46;18.60;99.90
5415;DHT22;2730;51.512;7.504;2023-07-29T03:48:13;18.60;99.90
5415;DHT22;2730;51.512;7.504;2023-07-29T03:50:40;18.60;99.90
5415;DHT22;2730;51.512;7.504;2023-07-29T03:53:06;18.60;99.90
5415;DHT22;2730;51.512;7.504;2023-07-29T03:55:35;18.50;99.90
5415;DHT22;2730;51.512;7.504;2023-07-29T03:58:03;18.50;99.90
5415;DHT22;2730;51.512;7.504;2023-07-29T04:00:30;18.50;99.90
5415;DHT22;2730;51.512;7.504;2023-07-29T04:02:57;18.50;99.90
5415;DHT22;2730;51.512;7.504;2023-07-29T04:05:24;18.50;99.90
5415;DHT22;2730;51.512;7.504;2023-07-29T04:07:51;18.50;99.90
5415;DHT22;2730;51.512;7.504;2023-07-29T04:10:19;18.40;99.90
5415;DHT22;2730;51.512;7.504;2023-07-29T04:12:46;18.50;99.90
5415;DHT22;2730;51.512;7.504;2023-07-29T04:15:14;18.60;99.90
5415;DHT22;2730;51.512;7.504;2023-07-29T04:17:41;18.60;99.90
5415;DHT22;2730;51.512;7.504;2023-07-29T04:20:08;18.60;99.90
5415;DHT22;2730;51.512;7.504;2023-07-29T04:22:35;18.70;99.90
5415;DHT22;2730;51.512;7.504;2023-07-29T04:25:02;18.70;99.90
5415;DHT22;2730;51.512;7.504;2023-07-29T04:27:30;18.70;99.90
5415;DHT22;2730;51.512;7.504;2023-07-29T04:29:56;18.70;99.90
5415;DHT22;2730;51.512;7.504;2023-07-29T04:32:24;18.70;99.90
5415;DHT22;2730;51.512;7.504;2023-07-29T04:34:52;18.70;99.90
5415;DHT22;2730;51.512;7.504;2023-07-29T04:37:19;18.80;99.90
5415;DHT22;2730;51.512;7.504;2023-07-29T04:39:46;18.80;99.90
5415;DHT22;2730;51.512;7.504;2023-07-29T04:42:13;18.90;99.90
5415;DHT22;2730;51.512;7.504;2023-07-29T04:44:39;18.90;99.90
5415;DHT22;2730;51.512;7.504;2023-07-29T04:47:07;18.90;99.90
5415;DHT22;2730;51.512;7.504;2023-07-29T04:49:35;18.80;99.90
5415;DHT22;2730;51.512;7.504;2023-07-29T04:52:02;18.90;99.90
5415;DHT22;2730;51.512;7.504;2023-07-29T04:54:29;18.90;99.90
5415;DHT22;2730;51.512;7.504;2023-07-29T04:56:56;18.90;99.90
5415;DHT22;2730;51.512;7.504;2023-07-29T04:59:23;18.90;99.90
5415;DHT22;2730;51.512;7.504;2023-07-29T05:01:49;18.90;99.90
5415;DHT22;2730;51.512;7.504;2023-07-29T05:04:16;18.90;99.90
5415;DHT22;2730;51.512;7.504;2023-07-29T05:06:44;18.90;99.90
5415;DHT22;2730;51.512;7.504;2023-07-29T05:09:14;18.90;99.90
5415;DHT22;2730;51.512;7.504;2023-07-29T05:11:42;19.00;99.90
5415;DHT22;2730;51.512;7.504;2023-07-29T05:14:10;19.00;99.90
5415;DHT22;2730;51.512;7.504;2023-07-29T05:16:37;19.10;99.90
5415;DHT22;2730;51.512;7.504;2023-07-29T05:19:04;19.10;99.90
5415;DHT22;2730;51.512;7.504;2023-07-29T05:21:31;19.10;99.90
5415;DHT22;2730;51.512;7.504;2023-07-29T05:23:59;19.20;99.90
5415;DHT22;2730;51.512;7.504;2023-07-29T05:26:26;19.20;99.90
5415;DHT22;2730;51.512;7.504;2023-07-29T05:28:52;19.20;99.90
5415;DHT22;2730;51.512;7.504;2023-07-29T05:31:19;19.20;99.90
5415;DHT22;2730;51.512;7.504;2023-07-29T05:33:46;19.30;99.90
5415;DHT22;2730;51.512;7.504;2023-07-29T05:36:13;19.20;99.90
5415;DHT22;2730;51.512;7.504;2023-07-29T05:38:39;19.20;99.90
5415;DHT22;2730;51.512;7.504;2023-07-29T05:41:07;19.20;99.90
5415;DHT22;2730;51.512;7.504;2023-07-29T05:43:34;19.20;99.90
5415;DHT22;2730;51.512;7.504;2023-07-29T05:46:01;19.30;99.90
5415;DHT22;2730;51.512;7.504;2023-07-29T05:48:28;19.30;99.90
5415;DHT22;2730;51.512;7.504;2023-07-29T05:50:54;19.50;99.90
5415;DHT22;2730;51.512;7.504;2023-07-29T05:53:21;19.60;99.90
5415;DHT22;2730;51.512;7.504;2023-07-29T05:55:48;19.70;99.90
5415;DHT22;2730;51.512;7.504;2023-07-29T05:58:16;19.70;99.90
5415;DHT22;2730;51.512;7.504;2023-07-29T06:00:43;19.80;99.90
5415;DHT22;2730;51.512;7.504;2023-07-29T06:03:09;19.60;99.90
5415;DHT22;2730;51.512;7.504;2023-07-29T06:05:36;19.60;99.90
5415;DHT22;2730;51.512;7.504;2023-07-29T06:08:03;19.50;99.90
5415;DHT22;2730;51.512;7.504;2023-07-29T06:10:30;19.60;99.90
5415;DHT22;2730;51.512;7.504;2023-07-29T06:12:57;19.60;99.90
5415;DHT22;2730;51.512;7.504;2023-07-29T06:15:25;19.60;99.90
5415;DHT22;2730;51.512;7.504;2023-07-29T06:17:53;19.60;99.90
5415;DHT22;2730;51.512;7.504;2023-07-29T06:20:19;19.70;99.90
5415;DHT22;2730;51.512;7.504;2023-07-29T06:22:46;19.70;99.90
5415;DHT22;2730;51.512;7.504;2023-07-29T06:25:13;19.60;99.90
5415;DHT22;2730;51.512;7.504;2023-07-29T06:27:40;19.50;99.90
5415;DHT22;2730;51.512;7.504;2023-07-29T06:30:07;19.50;99.90
5415;DHT22;2730;51.512;7.504;2023-07-29T06:32:35;19.50;99.90
5415;DHT22;2730;51.512;7.504;2023-07-29T06:35:02;19.40;99.90
5415;DHT22;2730;51.512;7.504;2023-07-29T06:37:29;19.40;99.90
5415;DHT22;2730;51.512;7.504;2023-07-29T06:39:56;19.60;99.90
5415;DHT22;2730;51.512;7.504;2023-07-29T06:42:23;19.50;99.90
5415;DHT22;2730;51.512;7.504;2023-07-29T06:44:49;19.60;99.90
5415;DHT22;2730;51.512;7.504;2023-07-29T06:47:16;19.70;99.90
5415;DHT22;2730;51.512;7.504;2023-07-29T06:49:46;19.80;99.90
5415;DHT22;2730;51.512;7.504;2023-07-29T06:52:12;19.80;99.90
5415;DHT22;2730;51.512;7.504;2023-07-29T06:54:39;19.80;99.90
5415;DHT22;2730;51.512;7.504;2023-07-29T06:57:06;19.70;99.90
5415;DHT22;2730;51.512;7.504;2023-07-29T06:59:33;19.70;99.90
5415;DHT22;2730;51.512;7.504;2023-07-29T07:02:00;19.70;99.90
5415;DHT22;2730;51.512;7.504;2023-07-29T07:04:27;19.70;99.90
5415;DHT22;2730;51.512;7.504;2023-07-29T07:06:55;19.60;99.90
5415;DHT22;2730;51.512;7.504;2023-07-29T07:09:22;19.50;99.90
5415;DHT22;2730;51.512;7.504;2023-07-29T07:11:49;19.70;99.90
5415;DHT22;2730;51.512;7.504;2023-07-29T07:14:15;19.70;99.90
5415;DHT22;2730;51.512;7.504;2023-07-29T07:16:42;19.80;99.90
5415;DHT22;2730;51.512;7.504;2023-07-29T07:19:09;19.80;99.90
5415;DHT22;2730;51.512;7.504;2023-07-29T07:21:36;19.80;99.90
5415;DHT22;2730;51.512;7.504;2023-07-29T07:24:04;19.80;99.90
5415;DHT22;2730;51.512;7.504;2023-07-29T07:26:31;19.90;99.90
5415;DHT22;2730;51.512;7.504;2023-07-29T07:28:58;20.10;99.90
5415;DHT22;2730;51.512;7.504;2023-07-29T07:31:24;20.20;99.90
5415;DHT22;2730;51.512;7.504;2023-07-29T07:33:51;20.40;99.90
5415;DHT22;2730;51.512;7.504;2023-07-29T07:36:18;20.60;99.90
5415;DHT22;2730;51.512;7.504;2023-07-29T07:38:45;20.90;99.90
5415;DHT22;2730;51.512;7.504;2023-07-29T07:41:13;21.50;99.90
5415;DHT22;2730;51.512;7.504;2023-07-29T07:43:40;22.60;79.70
5415;DHT22;2730;51.512;7.504;2023-07-29T07:46:06;23.20;99.90
5415;DHT22;2730;51.512;7.504;2023-07-29T07:48:33;23.70;1.00
5415;DHT22;2730;51.512;7.504;2023-07-29T07:51:00;23.60;99.90
5415;DHT22;2730;51.512;7.504;2023-07-29T07:53:26;24.00;1.00
5415;DHT22;2730;51.512;7.504;2023-07-29T07:55:53;25.40;99.90
5415;DHT22;2730;51.512;7.504;2023-07-29T07:58:21;26.40;47.90
5415;DHT22;2730;51.512;7.504;2023-07-29T08:00:48;26.40;99.90
5415;DHT22;2730;51.512;7.504;2023-07-29T08:03:15;25.90;99.90
5415;DHT22;2730;51.512;7.504;2023-07-29T08:05:41;26.60;22.80
5415;DHT22;2730;51.512;7.504;2023-07-29T08:08:08;27.70;1.00
5415;DHT22;2730;51.512;7.504;2023-07-29T08:10:35;28.50;99.90
5415;DHT22;2730;51.512;7.504;2023-07-29T08:13:02;29.00;99.90
5415;DHT22;2730;51.512;7.504;2023-07-29T08:15:30;28.40;90.10
5415;DHT22;2730;51.512;7.504;2023-07-29T08:17:56;27.10;1.00
5415;DHT22;2730;51.512;7.504;2023-07-29T08:20:23;26.50;54.00
5415;DHT22;2730;51.512;7.504;2023-07-29T08:22:50;25.90;99.90
5415;DHT22;2730;51.512;7.504;2023-07-29T08:25:17;25.70;1.00
5415;DHT22;2730;51.512;7.504;2023-07-29T08:27:43;25.20;1.00
5415;DHT22;2730;51.512;7.504;2023-07-29T08:30:10;24.70;87.80
5415;DHT22;2730;51.512;7.504;2023-07-29T08:32:39;25.20;1.00
5415;DHT22;2730;51.512;7.504;2023-07-29T08:35:06;24.40;1.00
5415;DHT22;2730;51.512;7.504;2023-07-29T08:37:33;24.80;99.90
5415;DHT22;2730;51.512;7.504;2023-07-29T08:39:59;25.10;99.90
5415;DHT22;2730;51.512;7.504;2023-07-29T08:42:29;25.20;99.90
5415;DHT22;2730;51.512;7.504;2023-07-29T08:45:05;26.10;99.90
5415;DHT22;2730;51.512;7.504;2023-07-29T08:47:33;26.40;1.00
5415;DHT22;2730;51.512;7.504;2023-07-29T08:50:02;26.10;99.90
5415;DHT22;2730;51.512;7.504;2023-07-29T08:52:30;26.20;1.00
5415;DHT22;2730;51.512;7.504;2023-07-29T08:54:57;26.00;1.00
5415;DHT22;2730;51.512;7.504;2023-07-29T08:57:24;26.30;99.90
5415;DHT22;2730;51.512;7.504;2023-07-29T08:59:52;27.40;99.90
5415;DHT22;2730;51.512;7.504;2023-07-29T09:02:19;27.90;99.90
5415;DHT22;2730;51.512;7.504;2023-07-29T09:04:45;27.90;99.90
5415;DHT22;2730;51.512;7.504;2023-07-29T09:07:14;27.40;99.90
5415;DHT22;2730;51.512;7.504;2023-07-29T09:09:40;27.70;99.90
5415;DHT22;2730;51.512;7.504;2023-07-29T09:12:08;27.90;1.00
5415;DHT22;2730;51.512;7.504;2023-07-29T09:14:34;28.10;85.40
5415;DHT22;2730;51.512;7.504;2023-07-29T09:17:02;27.50;98.40
5415;DHT22;2730;51.512;7.504;2023-07-29T09:19:33;27.30;99.90
5415;DHT22;2730;51.512;7.504;2023-07-29T09:22:00;28.20;99.90
5415;DHT22;2730;51.512;7.504;2023-07-29T09:24:28;29.30;1.00
5415;DHT22;2730;51.512;7.504;2023-07-29T09:26:57;30.00;1.00
5415;DHT22;2730;51.512;7.504;2023-07-29T09:29:28;29.90;99.90
5415;DHT22;2730;51.512;7.504;2023-07-29T09:32:18;29.20;1.00
5415;DHT22;2730;51.512;7.504;2023-07-29T09:34:45;28.50;1.00
5415;DHT22;2730;51.512;7.504;2023-07-29T09:37:16;27.90;1.00
5415;DHT22;2730;51.512;7.504;2023-07-29T09:39:46;27.60;99.90
5415;DHT22;2730;51.512;7.504;2023-07-29T09:42:17;27.50;46.10
5415;DHT22;2730;51.512;7.504;2023-07-29T09:44:45;27.60;1.00
5415;DHT22;2730;51.512;7.504;2023-07-29T09:47:19;28.40;1.00
5415;DHT22;2730;51.512;7.504;2023-07-29T09:49:46;28.70;1.00
5415;DHT22;2730;51.512;7.504;2023-07-29T09:52:15;28.50;1.00
5415;DHT22;2730;51.512;7.504;2023-07-29T09:54:42;28.60;1.00
5415;DHT22;2730;51.512;7.504;2023-07-29T09:57:11;29.00;1.00
5415;DHT22;2730;51.512;7.504;2023-07-29T09:59:39;28.90;1.00
5415;DHT22;2730;51.512;7.504;2023-07-29T10:02:10;29.20;1.00
5415;DHT22;2730;51.512;7.504;2023-07-29T10:04:40;29.60;1.00
5415;DHT22;2730;51.512;7.504;2023-07-29T10:07:09;30.30;99.90
5415;DHT22;2730;51.512;7.504;2023-07-29T10:09:36;30.30;99.90
5415;DHT22;2730;51.512;7.504;2023-07-29T10:12:06;29.10;99.90
5415;DHT22;2730;51.512;7.504;2023-07-29T10:14:35;28.50;1.00
5415;DHT22;2730;51.512;7.504;2023-07-29T10:17:04;28.00;1.00
5415;DHT22;2730;51.512;7.504;2023-07-29T10:19:31;27.00;99.90
5415;DHT22;2730;51.512;7.504;2023-07-29T10:21:59;26.50;99.90
5415;DHT22;2730;51.512;7.504;2023-07-29T10:24:32;26.10;1.00
5415;DHT22;2730;51.512;7.504;2023-07-29T10:27:01;25.60;1.00
5415;DHT22;2730;51.512;7.504;2023-07-29T10:29:30;25.30;99.90
5415;DHT22;2730;51.512;7.504;2023-07-29T10:32:01;25.20;1.00
5415;DHT22;2730;51.512;7.504;2023-07-29T10:34:30;25.50;1.00
5415;DHT22;2730;51.512;7.504;2023-07-29T10:36:57;25.60;59.80
5415;DHT22;2730;51.512;7.504;2023-07-29T10:39:24;26.10;1.00
5415;DHT22;2730;51.512;7.504;2023-07-29T10:41:55;26.40;99.90
5415;DHT22;2730;51.512;7.504;2023-07-29T10:44:48;27.20;99.90
5415;DHT22;2730;51.512;7.504;2023-07-29T10:47:18;28.00;1.00
5415;DHT22;2730;51.512;7.504;2023-07-29T10:49:47;28.70;1.00
5415;DHT22;2730;51.512;7.504;2023-07-29T10:52:14;28.80;1.00
5415;DHT22;2730;51.512;7.504;2023-07-29T10:54:43;28.60;1.00
5415;DHT22;2730;51.512;7.504;2023-07-29T10:57:13;28.40;1.00
5415;DHT22;2730;51.512;7.504;2023-07-29T10:59:40;28.30;1.00
5415;DHT22;2730;51.512;7.504;2023-07-29T11:02:17;28.60;1.00
5415;DHT22;2730;51.512;7.504;2023-07-29T11:04:47;29.10;1.00
5415;DHT22;2730;51.512;7.504;2023-07-29T11:07:24;28.70;1.00
5415;DHT22;2730;51.512;7.504;2023-07-29T11:09:55;28.60;1.00
5415;DHT22;2730;51.512;7.504;2023-07-29T11:12:40;27.60;67.50
5415;DHT22;2730;51.512;7.504;2023-07-29T11:15:19;27.30;99.90
5415;DHT22;2730;51.512;7.504;2023-07-29T11:17:48;26.40;99.90
5415;DHT22;2730;51.512;7.504;2023-07-29T11:20:16;25.90;1.00
5415;DHT22;2730;51.512;7.504;2023-07-29T11:22:43;25.60;99.90
5415;DHT22;2730;51.512;7.504;2023-07-29T11:25:11;25.80;1.00
5415;DHT22;2730;51.512;7.504;2023-07-29T11:27:38;25.90;1.00
5415;DHT22;2730;51.512;7.504;2023-07-29T11:30:07;26.00;1.00
5415;DHT22;2730;51.512;7.504;2023-07-29T11:32:35;25.90;1.00
5415;DHT22;2730;51.512;7.504;2023-07-29T11:35:05;26.30;1.00
5415;DHT22;2730;51.512;7.504;2023-07-29T11:37:33;26.50;99.90
5415;DHT22;2730;51.512;7.504;2023-07-29T11:40:00;26.20;99.90
5415;DHT22;2730;51.512;7.504;2023-07-29T11:42:27;26.10;1.00
5415;DHT22;2730;51.512;7.504;2023-07-29T11:44:56;26.00;1.00
5415;DHT22;2730;51.512;7.504;2023-07-29T11:47:24;26.00;1.00
5415;DHT22;2730;51.512;7.504;2023-07-29T11:49:51;25.90;1.00
5415;DHT22;2730;51.512;7.504;2023-07-29T11:52:19;25.80;1.00
5415;DHT22;2730;51.512;7.504;2023-07-29T11:54:48;25.60;1.00
5415;DHT22;2730;51.512;7.504;2023-07-29T11:57:16;25.40;3.60
5415;DHT22;2730;51.512;7.504;2023-07-29T11:59:44;25.40;7.90
5415;DHT22;2730;51.512;7.504;2023-07-29T12:02:12;25.40;86.00
5415;DHT22;2730;51.512;7.504;2023-07-29T12:04:40;25.30;1.00
5415;DHT22;2730;51.512;7.504;2023-07-29T12:07:08;25.20;1.00
5415;DHT22;2730;51.512;7.504;2023-07-29T12:09:36;25.30;99.90
5415;DHT22;2730;51.512;7.504;2023-07-29T12:12:05;25.20;99.90
5415;DHT22;2730;51.512;7.504;2023-07-29T12:14:32;25.10;99.90
5415;DHT22;2730;51.512;7.504;2023-07-29T12:17:00;25.20;99.90
5415;DHT22;2730;51.512;7.504;2023-07-29T12:19:31;25.50;99.90
5415;DHT22;2730;51.512;7.504;2023-07-29T12:21:58;25.70;99.90
5415;DHT22;2730;51.512;7.504;2023-07-29T12:24:25;25.90;1.00
5415;DHT22;2730;51.512;7.504;2023-07-29T12:26:53;26.00;31.00
5415;DHT22;2730;51.512;7.504;2023-07-29T12:29:20;26.10;1.00
5415;DHT22;2730;51.512;7.504;2023-07-29T12:31:47;26.20;1.00
5415;DHT22;2730;51.512;7.504;2023-07-29T12:34:18;26.10;1.00
5415;DHT22;2730;51.512;7.504;2023-07-29T12:36:47;26.10;1.00
5415;DHT22;2730;51.512;7.504;2023-07-29T12:39:18;26.10;1.00
5415;DHT22;2730;51.512;7.504;2023-07-29T12:41:45;25.80;1.00
5415;DHT22;2730;51.512;7.504;2023-07-29T12:44:13;25.40;1.00
5415;DHT22;2730;51.512;7.504;2023-07-29T12:46:40;25.00;99.90
5415;DHT22;2730;51.512;7.504;2023-07-29T12:49:07;25.00;99.90
5415;DHT22;2730;51.512;7.504;2023-07-29T12:51:35;25.30;99.90
5415;DHT22;2730;51.512;7.504;2023-07-29T12:54:02;25.40;1.00
5415;DHT22;2730;51.512;7.504;2023-07-29T12:56:29;25.60;99.90
5415;DHT22;2730;51.512;7.504;2023-07-29T12:58:57;25.50;1.00
5415;DHT22;2730;51.512;7.504;2023-07-29T13:01:26;25.40;1.00
5415;DHT22;2730;51.512;7.504;2023-07-29T13:03:53;25.20;99.90
5415;DHT22;2730;51.512;7.504;2023-07-29T13:06:20;25.10;99.90
5415;DHT22;2730;51.512;7.504;2023-07-29T13:08:47;25.10;1.00
5415;DHT22;2730;51.512;7.504;2023-07-29T13:11:14;25.40;1.00
5415;DHT22;2730;51.512;7.504;2023-07-29T13:13:41;25.60;1.00
5415;DHT22;2730;51.512;7.504;2023-07-29T13:16:08;25.70;1.00
5415;DHT22;2730;51.512;7.504;2023-07-29T13:18:36;25.70;1.00
5415;DHT22;2730;51.512;7.504;2023-07-29T13:21:03;25.50;99.90
5415;DHT22;2730;51.512;7.504;2023-07-29T13:23:29;25.60;30.10
5415;DHT22;2730;51.512;7.504;2023-07-29T13:25:57;25.40;99.90
5415;DHT22;2730;51.512;7.504;2023-07-29T13:28:24;25.30;1.00
5415;DHT22;2730;51.512;7.504;2023-07-29T13:30:51;25.10;99.70
5415;DHT22;2730;51.512;7.504;2023-07-29T13:33:17;24.70;1.00
5415;DHT22;2730;51.512;7.504;2023-07-29T13:35:46;24.90;99.90
5415;DHT22;2730;51.512;7.504;2023-07-29T13:38:12;25.00;99.90
5415;DHT22;2730;51.512;7.504;2023-07-29T13:40:39;25.10;99.90
5415;DHT22;2730;51.512;7.504;2023-07-29T13:43:06;25.30;1.00
5415;DHT22;2730;51.512;7.504;2023-07-29T13:45:34;25.30;99.90
5415;DHT22;2730;51.512;7.504;2023-07-29T13:48:00;25.30;1.00
5415;DHT22;2730;51.512;7.504;2023-07-29T13:50:27;25.20;1.00
5415;DHT22;2730;51.512;7.504;2023-07-29T13:52:55;25.20;22.60
5415;DHT22;2730;51.512;7.504;2023-07-29T13:55:22;25.20;99.90
5415;DHT22;2730;51.512;7.504;2023-07-29T13:57:49;25.20;99.90
5415;DHT22;2730;51.512;7.504;2023-07-29T14:00:16;25.10;27.10
5415;DHT22;2730;51.512;7.504;2023-07-29T14:02:42;24.80;1.00
5415;DHT22;2730;51.512;7.504;2023-07-29T14:05:09;24.80;1.00
5415;DHT22;2730;51.512;7.504;2023-07-29T14:07:37;24.80;1.00
5415;DHT22;2730;51.512;7.504;2023-07-29T14:10:06;24.70;1.00
5415;DHT22;2730;51.512;7.504;2023-07-29T14:12:34;24.70;1.00
5415;DHT22;2730;51.512;7.504;2023-07-29T14:15:01;24.50;1.00
5415;DHT22;2730;51.512;7.504;2023-07-29T14:17:27;24.30;1.00
5415;DHT22;2730;51.512;7.504;2023-07-29T14:19:54;24.10;1.00
5415;DHT22;2730;51.512;7.504;2023-07-29T14:22:21;24.00;99.90
5415;DHT22;2730;51.512;7.504;2023-07-29T14:24:48;23.90;1.00
5415;DHT22;2730;51.512;7.504;2023-07-29T14:27:16;23.80;1.00
5415;DHT22;2730;51.512;7.504;2023-07-29T14:29:43;23.70;99.90
5415;DHT22;2730;51.512;7.504;2023-07-29T14:32:09;23.60;99.90
5415;DHT22;2730;51.512;7.504;2023-07-29T14:34:36;23.50;99.90
5415;DHT22;2730;51.512;7.504;2023-07-29T14:37:04;23.40;1.00
5415;DHT22;2730;51.512;7.504;2023-07-29T14:39:31;23.30;1.00
5415;DHT22;2730;51.512;7.504;2023-07-29T14:41:58;23.00;1.00
5415;DHT22;2730;51.512;7.504;2023-07-29T14:44:26;22.80;1.00
5415;DHT22;2730;51.512;7.504;2023-07-29T14:46:53;22.50;1.00
5415;DHT22;2730;51.512;7.504;2023-07-29T14:49:20;22.20;5.80
5415;DHT22;2730;51.512;7.504;2023-07-29T14:51:47;21.90;32.60
5415;DHT22;2730;51.512;7.504;2023-07-29T14:54:14;21.60;99.90
5415;DHT22;2730;51.512;7.504;2023-07-29T14:56:41;21.10;99.90
5415;DHT22;2730;51.512;7.504;2023-07-29T14:59:07;20.50;99.90
5415;DHT22;2730;51.512;7.504;2023-07-29T15:01:36;20.20;99.90
5415;DHT22;2730;51.512;7.504;2023-07-29T15:04:03;19.70;99.90
5415;DHT22;2730;51.512;7.504;2023-07-29T15:06:29;19.40;99.90
5415;DHT22;2730;51.512;7.504;2023-07-29T15:08:56;19.20;99.90
5415;DHT22;2730;51.512;7.504;2023-07-29T15:11:23;19.30;99.90
5415;DHT22;2730;51.512;7.504;2023-07-29T15:13:50;19.40;99.90
5415;DHT22;2730;51.512;7.504;2023-07-29T15:16:17;19.70;99.90
5415;DHT22;2730;51.512;7.504;2023-07-29T15:18:45;20.10;99.90
5415;DHT22;2730;51.512;7.504;2023-07-29T15:21:11;20.40;99.90
5415;DHT22;2730;51.512;7.504;2023-07-29T15:23:38;20.50;99.90
5415;DHT22;2730;51.512;7.504;2023-07-29T15:26:05;20.60;99.90
5415;DHT22;2730;51.512;7.504;2023-07-29T15:28:32;20.60;99.90
5415;DHT22;2730;51.512;7.504;2023-07-29T15:30:58;20.70;99.90
5415;DHT22;2730;51.512;7.504;2023-07-29T15:33:25;20.70;99.90
5415;DHT22;2730;51.512;7.504;2023-07-29T15:35:53;20.50;99.90
5415;DHT22;2730;51.512;7.504;2023-07-29T15:38:20;20.60;99.90
5415;DHT22;2730;51.512;7.504;2023-07-29T15:40:47;20.60;99.90
5415;DHT22;2730;51.512;7.504;2023-07-29T15:43:16;20.60;99.90
5415;DHT22;2730;51.512;7.504;2023-07-29T15:45:43;20.60;99.90
5415;DHT22;2730;51.512;7.504;2023-07-29T15:48:11;20.60;99.90
5415;DHT22;2730;51.512;7.504;2023-07-29T15:50:38;20.70;99.90
5415;DHT22;2730;51.512;7.504;2023-07-29T15:53:07;20.70;99.90
5415;DHT22;2730;51.512;7.504;2023-07-29T15:55:34;20.70;99.90
5415;DHT22;2730;51.512;7.504;2023-07-29T15:58:00;20.70;99.90
5415;DHT22;2730;51.512;7.504;2023-07-29T16:00:27;20.80;99.90
5415;DHT22;2730;51.512;7.504;2023-07-29T16:02:54;21.10;99.90
5415;DHT22;2730;51.512;7.504;2023-07-29T16:05:21;21.40;99.90
5415;DHT22;2730;51.512;7.504;2023-07-29T16:07:48;21.80;57.60